createdAt,value
2018-02-05T00:02:13.634Z,15.37
2018-02-05T00:04:40.998Z,15.33
2018-02-05T00:07:08.373Z,16.03
2018-02-05T00:09:35.717Z,18.10
2018-02-05T00:12:03.102Z,17.20
2018-02-05T00:14:30.452Z,18.50
2018-02-05T00:16:57.811Z,17.47
2018-02-05T00:19:25.175Z,18.00
2018-02-05T00:21:52.654Z,18.80
2018-02-05T00:24:20.020Z,19.00
2018-02-05T00:26:47.558Z,18.43
2018-02-05T00:29:14.927Z,18.60
2018-02-05T00:31:42.285Z,20.17
2018-02-05T00:34:09.722Z,18.40
2018-02-05T00:36:37.076Z,19.00
2018-02-05T00:39:04.455Z,16.90
2018-02-05T00:41:31.797Z,20.33
2018-02-05T00:43:59.136Z,17.97
2018-02-05T00:46:26.549Z,18.93
2018-02-05T00:48:53.916Z,19.17
2018-02-05T00:51:21.289Z,21.67
2018-02-05T00:53:48.639Z,18.67
2018-02-05T00:56:16.023Z,18.67
2018-02-05T00:58:43.382Z,19.67
2018-02-05T01:01:10.751Z,19.60
2018-02-05T01:03:38.127Z,20.80
2018-02-05T01:06:05.493Z,20.40
2018-02-05T01:08:32.869Z,19.00
2018-02-05T01:11:00.552Z,20.33
2018-02-05T01:13:28.017Z,19.17
2018-02-05T01:15:55.359Z,18.93
2018-02-05T01:18:22.716Z,20.40
2018-02-05T01:20:50.059Z,20.00
2018-02-05T01:23:17.467Z,20.37
2018-02-05T01:25:44.810Z,20.37
2018-02-05T01:28:12.174Z,18.63
2018-02-05T01:30:39.508Z,21.10
2018-02-05T01:33:06.903Z,19.30
2018-02-05T01:35:34.230Z,19.63
2018-02-05T01:38:01.577Z,20.60
2018-02-05T01:40:29.021Z,20.43
2018-02-05T01:42:56.375Z,19.00
2018-02-05T01:45:23.745Z,19.73
2018-02-05T01:47:51.087Z,19.70
2018-02-05T01:50:18.539Z,20.70
2018-02-05T01:52:45.977Z,20.33
2018-02-05T01:55:13.378Z,21.10
2018-02-05T01:57:40.738Z,20.87
2018-02-05T02:00:08.094Z,19.20
2018-02-05T02:02:35.518Z,19.83
2018-02-05T02:05:02.884Z,19.63
2018-02-05T02:07:30.266Z,19.90
2018-02-05T02:09:57.684Z,19.90
2018-02-05T02:12:25.042Z,19.73
2018-02-05T02:14:52.598Z,19.10
2018-02-05T02:17:19.933Z,19.17
2018-02-05T02:19:47.283Z,20.10
2018-02-05T02:22:14.882Z,21.77
2018-02-05T02:24:42.221Z,19.47
2018-02-05T02:27:09.599Z,20.70
2018-02-05T02:29:37.036Z,20.30
2018-02-05T02:32:04.409Z,20.07
2018-02-05T02:34:31.743Z,19.50
2018-02-05T02:36:59.138Z,18.80
2018-02-05T02:39:26.789Z,20.07
2018-02-05T02:41:54.159Z,19.80
2018-02-05T02:44:21.572Z,19.83
2018-02-05T02:46:48.971Z,21.77
2018-02-05T02:49:16.303Z,20.47
2018-02-05T02:51:43.673Z,19.93
2018-02-05T02:54:11.078Z,21.07
2018-02-05T02:56:38.481Z,20.57
2018-02-05T02:59:05.820Z,19.50
2018-02-05T03:01:33.266Z,19.70
2018-02-05T03:04:00.602Z,20.37
2018-02-05T03:06:28.072Z,18.83
2018-02-05T03:08:55.430Z,19.77
2018-02-05T03:11:22.806Z,18.13
2018-02-05T03:13:50.171Z,18.77
2018-02-05T03:16:17.533Z,19.70
2018-02-05T03:18:44.913Z,20.87
2018-02-05T03:21:12.274Z,20.47
2018-02-05T03:23:39.641Z,19.60
2018-02-05T03:26:06.994Z,19.37
2018-02-05T03:28:34.392Z,20.70
2018-02-05T03:31:01.735Z,18.17
2018-02-05T03:33:29.184Z,20.13
2018-02-05T03:35:56.523Z,19.63
2018-02-05T03:38:23.862Z,18.10
2018-02-05T03:40:51.246Z,19.73
2018-02-05T03:43:18.707Z,19.00
2018-02-05T03:45:46.157Z,20.30
2018-02-05T03:48:13.507Z,20.33
2018-02-05T03:50:40.970Z,20.90
2018-02-05T03:53:08.310Z,19.30
2018-02-05T03:55:35.676Z,20.17
2018-02-05T03:58:03.033Z,21.13
2018-02-05T04:00:30.407Z,20.97
2018-02-05T04:02:57.749Z,20.77
2018-02-05T04:05:25.143Z,19.27
2018-02-05T04:07:52.562Z,20.63
2018-02-05T04:10:19.894Z,19.03
2018-02-05T04:12:47.271Z,19.77
2018-02-05T04:15:14.626Z,21.67
2018-02-05T04:17:42.076Z,20.80
2018-02-05T04:20:09.440Z,18.27
2018-02-05T04:22:36.801Z,20.10
2018-02-05T04:25:04.243Z,20.23
2018-02-05T04:27:31.700Z,17.93
2018-02-05T04:29:59.156Z,20.03
2018-02-05T04:32:26.538Z,19.80
2018-02-05T04:34:53.907Z,20.97
2018-02-05T04:37:21.343Z,20.47
2018-02-05T04:39:48.780Z,19.73
2018-02-05T04:42:16.152Z,19.47
2018-02-05T04:44:43.534Z,18.90
2018-02-05T04:47:10.947Z,19.77
2018-02-05T04:49:38.338Z,19.70
2018-02-05T04:52:05.677Z,18.63
2018-02-05T04:54:33.049Z,19.60
2018-02-05T04:57:00.380Z,18.00
2018-02-05T04:59:27.745Z,18.43
2018-02-05T05:01:55.178Z,19.47
2018-02-05T05:04:22.537Z,20.13
2018-02-05T05:06:49.879Z,20.23
2018-02-05T05:09:17.447Z,20.27
2018-02-05T05:11:44.780Z,18.63
2018-02-05T05:14:12.125Z,18.20
2018-02-05T05:16:39.510Z,19.33
2018-02-05T05:19:06.870Z,17.90
2018-02-05T05:21:34.254Z,18.80
2018-02-05T05:24:01.633Z,19.03
2018-02-05T05:26:29.001Z,18.30
2018-02-05T05:28:56.363Z,20.23
2018-02-05T05:31:23.847Z,20.00
2018-02-05T05:33:51.204Z,19.30
2018-02-05T05:36:18.573Z,21.20
2018-02-05T05:38:45.917Z,18.87
2018-02-05T05:41:13.317Z,18.93
2018-02-05T05:43:40.655Z,18.67
2018-02-05T05:46:08.080Z,18.33
2018-02-05T05:48:35.519Z,19.30
2018-02-05T05:51:02.881Z,19.20
2018-02-05T05:53:30.343Z,17.70
2018-02-05T05:55:57.681Z,17.57
2018-02-05T05:58:25.038Z,18.50
2018-02-05T06:00:52.386Z,18.20
2018-02-05T06:03:19.867Z,18.73
2018-02-05T06:05:47.222Z,18.00
2018-02-05T06:08:14.561Z,19.07
2018-02-05T06:10:41.925Z,17.07
2018-02-05T06:13:09.269Z,17.30
2018-02-05T06:15:36.741Z,18.63
2018-02-05T06:18:04.078Z,17.93
2018-02-05T06:20:31.441Z,18.37
2018-02-05T06:22:58.792Z,20.37
2018-02-05T06:25:26.212Z,19.77
2018-02-05T06:27:53.561Z,18.77
2018-02-05T06:30:20.929Z,18.60
2018-02-05T06:32:48.505Z,19.67
2018-02-05T06:35:15.872Z,17.63
2018-02-05T06:37:43.210Z,19.40
2018-02-05T06:40:10.549Z,17.20
2018-02-05T06:42:37.906Z,17.87
2018-02-05T06:45:05.271Z,18.20
2018-02-05T06:47:32.636Z,18.33
2018-02-05T06:49:59.967Z,19.50
2018-02-05T06:52:33.287Z,17.90
2018-02-05T06:55:06.511Z,20.73
2018-02-05T06:57:33.913Z,19.30
2018-02-05T07:00:01.284Z,17.73
2018-02-05T07:02:28.769Z,19.30
2018-02-05T07:04:56.101Z,18.83
2018-02-05T07:07:23.468Z,18.50
2018-02-05T07:09:50.833Z,18.57
2018-02-05T07:12:18.289Z,20.33
2018-02-05T07:14:45.678Z,20.60
2018-02-05T07:17:13.023Z,17.53
2018-02-05T07:19:40.422Z,20.53
2018-02-05T07:22:07.767Z,18.80
2018-02-05T07:24:35.141Z,22.87
2018-02-05T07:27:02.483Z,24.97
2018-02-05T07:29:29.856Z,21.80
2018-02-05T07:31:57.194Z,18.70
2018-02-05T07:34:24.538Z,17.80
2018-02-05T07:36:51.893Z,18.30
2018-02-05T07:39:19.228Z,18.80
2018-02-05T07:41:46.593Z,20.67
2018-02-05T07:44:13.939Z,19.53
2018-02-05T07:46:41.313Z,19.43
2018-02-05T07:49:08.649Z,18.97
2018-02-05T07:51:36.018Z,22.60
2018-02-05T07:54:03.385Z,35.97
2018-02-05T07:56:30.796Z,19.63
2018-02-05T07:58:58.128Z,18.87
2018-02-05T08:01:25.470Z,19.90
2018-02-05T08:03:52.850Z,17.13
2018-02-05T08:06:20.298Z,19.70
2018-02-05T08:08:47.659Z,19.43
2018-02-05T08:11:15.007Z,19.70
2018-02-05T08:13:42.380Z,18.63
2018-02-05T08:16:09.718Z,17.70
2018-02-05T08:18:37.098Z,18.37
2018-02-05T08:21:04.437Z,19.60
2018-02-05T08:23:31.794Z,18.30
2018-02-05T08:25:59.174Z,18.47
2018-02-05T08:28:26.530Z,21.30
2018-02-05T08:30:53.946Z,19.17
2018-02-05T08:33:21.303Z,19.23
2018-02-05T08:35:48.646Z,20.03
2018-02-05T08:38:16.006Z,19.57
2018-02-05T08:40:43.468Z,20.70
2018-02-05T08:43:10.797Z,17.67
2018-02-05T08:45:38.165Z,17.93
2018-02-05T08:48:05.507Z,16.93
2018-02-05T08:50:32.869Z,20.77
2018-02-05T08:53:00.238Z,17.30
2018-02-05T08:55:27.606Z,19.47
2018-02-05T08:57:54.941Z,19.07
2018-02-05T09:00:22.350Z,16.57
2018-02-05T09:02:49.683Z,19.20
2018-02-05T09:05:17.058Z,19.77
2018-02-05T09:07:44.392Z,17.93
2018-02-05T09:10:11.731Z,16.47
2018-02-05T09:12:39.085Z,18.80
2018-02-05T09:15:06.431Z,19.20
2018-02-05T09:17:33.897Z,17.70
2018-02-05T09:20:01.241Z,18.97
2018-02-05T09:22:28.703Z,18.40
2018-02-05T09:24:56.041Z,16.50
2018-02-05T09:27:23.401Z,18.47
2018-02-05T09:29:50.738Z,17.63
2018-02-05T09:32:18.097Z,16.77
2018-02-05T09:34:45.452Z,18.00
2018-02-05T09:37:12.832Z,16.63
2018-02-05T09:39:40.170Z,17.87
2018-02-05T09:42:07.526Z,18.10
2018-02-05T09:44:34.897Z,18.07
2018-02-05T09:47:02.235Z,16.30
2018-02-05T09:49:29.599Z,17.30
2018-02-05T09:51:56.929Z,16.70
2018-02-05T09:54:24.295Z,18.30
2018-02-05T09:56:51.814Z,16.77
2018-02-05T09:59:19.182Z,20.50
2018-02-05T10:01:46.529Z,19.73
2018-02-05T10:04:13.904Z,15.57
2018-02-05T10:06:41.254Z,17.30
2018-02-05T10:09:08.593Z,15.17
2018-02-05T10:11:35.957Z,17.23
2018-02-05T10:14:03.296Z,16.77
2018-02-05T10:16:30.667Z,17.37
2018-02-05T10:18:58.022Z,17.30
2018-02-05T10:21:25.456Z,15.90
2018-02-05T10:23:52.794Z,15.23
2018-02-05T10:26:20.137Z,15.93
2018-02-05T10:28:47.507Z,16.50
2018-02-05T10:31:14.849Z,16.20
2018-02-05T10:33:42.204Z,16.70
2018-02-05T10:36:09.545Z,17.17
2018-02-05T10:38:36.913Z,15.50
2018-02-05T10:41:04.247Z,14.87
2018-02-05T10:43:31.588Z,16.17
2018-02-05T10:45:58.969Z,16.47
2018-02-05T10:48:26.316Z,16.30
2018-02-05T10:50:53.693Z,15.37
2018-02-05T10:53:21.028Z,16.70
2018-02-05T10:55:48.417Z,15.40
2018-02-05T10:58:15.759Z,15.43
2018-02-05T11:00:43.186Z,15.30
2018-02-05T11:03:10.523Z,15.20
2018-02-05T11:05:37.858Z,15.63
2018-02-05T11:08:05.231Z,15.83
2018-02-05T11:10:32.573Z,14.77
2018-02-05T11:12:59.930Z,15.17
2018-02-05T11:15:27.263Z,14.80
2018-02-05T11:17:54.626Z,14.23
2018-02-05T11:20:21.965Z,15.60
2018-02-05T11:22:49.330Z,14.67
2018-02-05T11:25:16.675Z,14.10
2018-02-05T11:27:44.097Z,14.17
2018-02-05T11:30:11.442Z,14.47
2018-02-05T11:32:38.773Z,13.90
2018-02-05T11:35:06.150Z,13.70
2018-02-05T11:37:33.493Z,14.13
2018-02-05T11:40:00.867Z,13.53
2018-02-05T11:42:28.229Z,12.93
2018-02-05T11:44:55.598Z,14.23
2018-02-05T11:47:22.945Z,14.37
2018-02-05T11:49:50.309Z,13.50
2018-02-05T11:52:17.745Z,14.70
2018-02-05T11:54:45.115Z,14.50
2018-02-05T11:57:12.461Z,12.70
2018-02-05T11:59:39.836Z,14.27
2018-02-05T12:02:07.167Z,13.33
2018-02-05T12:04:34.510Z,13.30
2018-02-05T12:07:01.878Z,15.40
2018-02-05T12:09:29.248Z,14.47
2018-02-05T12:11:56.619Z,14.33
2018-02-05T12:14:23.966Z,13.70
2018-02-05T12:16:51.343Z,13.40
2018-02-05T12:19:18.673Z,15.40
2018-02-05T12:21:46.075Z,14.33
2018-02-05T12:24:13.415Z,14.57
2018-02-05T12:26:40.779Z,14.70
2018-02-05T12:29:08.168Z,13.27
2018-02-05T12:31:35.505Z,13.37
2018-02-05T12:34:02.888Z,11.93
2018-02-05T12:36:30.231Z,11.80
2018-02-05T12:38:57.602Z,12.83
2018-02-05T12:41:24.966Z,13.83
2018-02-05T12:43:52.335Z,12.03
2018-02-05T12:46:19.675Z,12.90
2018-02-05T12:48:47.043Z,11.63
2018-02-05T12:51:14.382Z,13.53
2018-02-05T12:53:41.735Z,12.53
2018-02-05T12:56:09.178Z,12.70
2018-02-05T12:58:36.524Z,12.83
2018-02-05T13:01:03.892Z,12.67
2018-02-05T13:03:33.093Z,13.30
2018-02-05T13:06:16.058Z,11.50
2018-02-05T13:08:43.413Z,12.13
2018-02-05T13:11:11.677Z,12.90
2018-02-05T13:13:39.032Z,12.33
2018-02-05T13:16:06.395Z,13.57
2018-02-05T13:18:33.735Z,12.40
2018-02-05T13:21:01.102Z,12.60
2018-02-05T13:23:28.485Z,11.37
2018-02-05T13:25:55.862Z,12.20
2018-02-05T13:28:23.211Z,11.93
2018-02-05T13:30:50.567Z,13.10
2018-02-05T13:33:18.128Z,13.80
2018-02-05T13:35:46.410Z,13.90
2018-02-05T13:38:14.916Z,17.20
2018-02-05T13:40:43.784Z,16.00
2018-02-05T13:43:12.039Z,13.33
2018-02-05T13:45:40.457Z,12.60
2018-02-05T13:48:09.065Z,13.10
2018-02-05T13:50:37.320Z,12.63
2018-02-05T13:53:04.735Z,11.10
2018-02-05T13:55:32.083Z,12.10
2018-02-05T13:57:59.452Z,13.10
2018-02-05T14:00:26.782Z,11.73
2018-02-05T14:02:54.190Z,11.50
2018-02-05T14:05:21.536Z,12.13
2018-02-05T14:07:48.877Z,13.03
2018-02-05T14:10:16.238Z,11.80
2018-02-05T14:12:43.589Z,10.83
2018-02-05T14:15:10.949Z,11.93
2018-02-05T14:17:38.291Z,12.03
2018-02-05T14:20:05.667Z,11.77
2018-02-05T14:22:32.997Z,12.87
2018-02-05T14:25:00.400Z,12.87
2018-02-05T14:27:27.744Z,13.20
2018-02-05T14:29:55.124Z,10.90
2018-02-05T14:32:22.471Z,12.00
2018-02-05T14:34:49.810Z,13.03
2018-02-05T14:37:17.174Z,12.40
2018-02-05T14:39:44.535Z,16.17
2018-02-05T14:42:11.898Z,13.23
2018-02-05T14:44:39.228Z,10.30
2018-02-05T14:47:06.594Z,10.50
2018-02-05T14:49:34.010Z,11.43
2018-02-05T14:52:01.401Z,10.90
2018-02-05T14:54:28.774Z,10.70
2018-02-05T14:56:56.116Z,10.43
2018-02-05T14:59:23.468Z,12.73
2018-02-05T15:01:51.196Z,12.03
2018-02-05T15:04:19.575Z,12.90
2018-02-05T15:06:47.959Z,11.90
2018-02-05T15:09:15.860Z,12.87
2018-02-05T15:11:43.272Z,11.97
2018-02-05T15:14:10.734Z,12.50
2018-02-05T15:16:38.069Z,10.77
2018-02-05T15:19:05.435Z,11.93
2018-02-05T15:21:32.777Z,10.00
2018-02-05T15:24:00.143Z,11.90
2018-02-05T15:26:27.487Z,11.53
2018-02-05T15:28:54.849Z,12.17
2018-02-05T15:31:22.240Z,11.10
2018-02-05T15:33:49.637Z,11.93
2018-02-05T15:36:16.978Z,9.90
2018-02-05T15:38:44.305Z,10.70
2018-02-05T15:41:11.662Z,9.93
2018-02-05T15:43:39.032Z,10.50
2018-02-05T15:46:06.403Z,11.27
2018-02-05T15:48:33.738Z,12.50
2018-02-05T15:51:01.146Z,9.80
2018-02-05T15:53:28.498Z,8.97
2018-02-05T15:55:55.835Z,11.30
2018-02-05T15:58:23.203Z,11.23
2018-02-05T16:00:50.591Z,11.33
2018-02-05T16:03:17.946Z,10.77
2018-02-05T16:05:45.288Z,9.20
2018-02-05T16:08:12.742Z,11.10
2018-02-05T16:10:40.081Z,10.50
2018-02-05T16:13:07.458Z,10.63
2018-02-05T16:15:34.796Z,12.60
2018-02-05T16:18:02.181Z,10.73
2018-02-05T16:20:29.622Z,11.10
2018-02-05T16:22:56.961Z,9.90
2018-02-05T16:25:24.327Z,10.53
2018-02-05T16:27:51.662Z,10.77
2018-02-05T16:30:19.036Z,11.80
2018-02-05T16:32:46.376Z,11.40
2018-02-05T16:35:13.747Z,11.30
2018-02-05T16:37:41.078Z,11.50
2018-02-05T16:40:08.482Z,11.20
2018-02-05T16:42:35.817Z,22.77
2018-02-05T16:45:03.167Z,20.37
2018-02-05T16:47:30.525Z,11.00
2018-02-05T16:49:57.865Z,11.53
2018-02-05T16:52:25.225Z,12.47
2018-02-05T16:54:52.574Z,10.23
2018-02-05T16:57:19.936Z,11.50
2018-02-05T16:59:47.284Z,12.93
2018-02-05T17:02:14.674Z,11.97
2018-02-05T17:04:42.104Z,13.13
2018-02-05T17:07:09.466Z,11.90
2018-02-05T17:09:36.804Z,11.10
2018-02-05T17:12:04.214Z,12.13
2018-02-05T17:14:31.555Z,13.17
2018-02-05T17:16:58.893Z,12.50
2018-02-05T17:19:26.335Z,10.80
2018-02-05T17:21:53.674Z,11.37
2018-02-05T17:24:21.039Z,12.53
2018-02-05T17:26:48.382Z,10.77
2018-02-05T17:29:15.754Z,12.10
2018-02-05T17:31:43.100Z,11.43
2018-02-05T17:34:10.465Z,12.83
2018-02-05T17:36:37.815Z,11.17
2018-02-05T17:39:05.155Z,11.03
2018-02-05T17:41:32.521Z,12.53
2018-02-05T17:43:59.868Z,12.03
2018-02-05T17:46:27.242Z,10.57
2018-02-05T17:48:54.616Z,11.47
2018-02-05T17:51:21.986Z,10.50
2018-02-05T17:53:50.075Z,10.73
2018-02-05T17:56:17.440Z,11.13
2018-02-05T17:58:44.840Z,12.13
2018-02-05T18:01:12.216Z,11.17
2018-02-05T18:03:39.586Z,10.27
2018-02-05T18:06:06.957Z,11.47
2018-02-05T18:08:34.293Z,11.00
2018-02-05T18:11:01.631Z,10.03
2018-02-05T18:13:28.989Z,9.40
2018-02-05T18:15:56.337Z,11.07
2018-02-05T18:18:23.704Z,10.70
2018-02-05T18:20:51.047Z,10.03
2018-02-05T18:23:18.415Z,10.80
2018-02-05T18:25:45.742Z,9.50
2018-02-05T18:28:13.189Z,10.55
2018-02-05T18:30:40.545Z,11.67
2018-02-05T18:33:08.001Z,10.40
2018-02-05T18:35:35.377Z,9.80
2018-02-05T18:38:02.704Z,9.40
2018-02-05T18:40:30.082Z,10.43
2018-02-05T18:42:57.429Z,11.25
2018-02-05T18:45:24.807Z,12.43
2018-02-05T18:47:52.161Z,14.80
2018-02-05T18:50:19.524Z,9.87
2018-02-05T18:52:46.860Z,8.87
2018-02-05T18:55:14.189Z,9.93
2018-02-05T18:57:41.548Z,9.37
2018-02-05T19:00:14.789Z,9.83
2018-02-05T19:02:42.177Z,10.10
2018-02-05T19:05:09.504Z,8.33
2018-02-05T19:07:36.881Z,10.57
2018-02-05T19:10:04.214Z,9.57
2018-02-05T19:12:31.580Z,9.00
2018-02-05T19:14:58.971Z,9.33
2018-02-05T19:17:26.306Z,10.50
2018-02-05T19:19:53.665Z,8.83
2018-02-05T19:22:20.999Z,9.60
2018-02-05T19:24:48.358Z,9.80
2018-02-05T19:27:15.693Z,9.47
2018-02-05T19:29:43.079Z,9.40
2018-02-05T19:32:10.428Z,10.53
2018-02-05T19:34:38.118Z,10.20
2018-02-05T19:37:05.484Z,10.03
2018-02-05T19:39:32.931Z,9.57
2018-02-05T19:42:00.388Z,10.00
2018-02-05T19:44:27.720Z,10.43
2018-02-05T19:46:55.085Z,9.77
2018-02-05T19:49:22.415Z,9.90
2018-02-05T19:51:49.870Z,10.53
2018-02-05T19:54:17.198Z,9.47
2018-02-05T19:56:44.580Z,8.87
2018-02-05T19:59:11.981Z,10.10
2018-02-05T20:01:39.314Z,9.77
2018-02-05T20:04:06.717Z,9.63
2018-02-05T20:06:34.049Z,9.83
2018-02-05T20:09:01.414Z,10.27
2018-02-05T20:11:28.786Z,10.57
2018-02-05T20:13:56.189Z,10.83
2018-02-05T20:16:23.576Z,10.20
2018-02-05T20:18:50.980Z,10.07
2018-02-05T20:21:18.318Z,11.03
2018-02-05T20:23:45.702Z,11.00
2018-02-05T20:26:13.116Z,10.73
2018-02-05T20:28:40.485Z,10.73
2018-02-05T20:31:07.896Z,9.90
2018-02-05T20:33:35.758Z,11.07
2018-02-05T20:36:04.593Z,11.67
2018-02-05T20:38:32.824Z,9.73
2018-02-05T20:41:00.483Z,11.40
2018-02-05T20:43:28.593Z,10.23
2018-02-05T20:45:56.006Z,10.70
2018-02-05T20:48:23.366Z,10.90
2018-02-05T20:50:50.796Z,10.93
2018-02-05T20:53:18.130Z,11.00
2018-02-05T20:55:45.465Z,10.47
2018-02-05T20:58:12.829Z,12.20
2018-02-05T21:00:40.161Z,11.40
2018-02-05T21:03:07.584Z,10.50
2018-02-05T21:05:34.968Z,10.43
2018-02-05T21:08:02.336Z,10.87
2018-02-05T21:10:29.717Z,11.50
2018-02-05T21:12:57.091Z,11.60
2018-02-05T21:15:24.497Z,12.53
2018-02-05T21:17:51.890Z,12.10
2018-02-05T21:20:19.248Z,12.60
2018-02-05T21:22:46.585Z,11.70
2018-02-05T21:25:13.946Z,12.00
2018-02-05T21:27:41.277Z,10.80
2018-02-05T21:30:08.638Z,12.13
2018-02-05T21:32:36.111Z,11.60
2018-02-05T21:35:03.627Z,10.60
2018-02-05T21:37:30.961Z,10.97
2018-02-05T21:39:58.363Z,11.60
2018-02-05T21:42:25.707Z,11.93
2018-02-05T21:44:53.141Z,11.47
2018-02-05T21:47:20.501Z,10.70
2018-02-05T21:49:48.158Z,12.23
2018-02-05T21:52:15.533Z,12.00
2018-02-05T21:54:42.920Z,11.40
2018-02-05T21:57:10.279Z,12.23
2018-02-05T21:59:37.651Z,10.40
2018-02-05T22:02:05.021Z,11.80
2018-02-05T22:04:32.393Z,11.23
2018-02-05T22:06:59.730Z,11.70
2018-02-05T22:09:27.107Z,11.40
2018-02-05T22:11:54.455Z,12.37
2018-02-05T22:14:21.824Z,12.43
2018-02-05T22:16:49.172Z,12.40
2018-02-05T22:19:16.620Z,12.73
2018-02-05T22:21:43.960Z,13.13
2018-02-05T22:24:11.432Z,12.77
2018-02-05T22:26:38.765Z,13.47
2018-02-05T22:29:06.164Z,12.53
2018-02-05T22:31:33.598Z,13.30
2018-02-05T22:34:00.935Z,12.97
2018-02-05T22:36:28.309Z,12.40
2018-02-05T22:38:55.682Z,12.37
2018-02-05T22:41:23.045Z,12.40
2018-02-05T22:43:50.475Z,12.00
2018-02-05T22:46:17.838Z,12.53
2018-02-05T22:48:45.175Z,12.07
2018-02-05T22:51:12.549Z,13.07
2018-02-05T22:53:39.905Z,12.27
2018-02-05T22:56:07.248Z,12.90
2018-02-05T22:58:34.608Z,14.13
2018-02-05T23:01:01.948Z,12.17
2018-02-05T23:03:29.348Z,12.33
2018-02-05T23:05:56.769Z,13.47
2018-02-05T23:08:24.226Z,13.00
2018-02-05T23:10:51.575Z,12.27
2018-02-05T23:13:18.952Z,13.93
2018-02-05T23:15:46.309Z,12.10
2018-02-05T23:18:13.752Z,12.03
2018-02-05T23:20:41.165Z,13.73
2018-02-05T23:23:08.543Z,13.40
2018-02-05T23:25:36.017Z,12.50
2018-02-05T23:28:03.426Z,13.00
2018-02-05T23:30:30.785Z,11.43
2018-02-05T23:32:58.130Z,12.60
2018-02-05T23:35:25.503Z,13.60
2018-02-05T23:37:52.849Z,12.80
2018-02-05T23:40:20.187Z,13.20
2018-02-05T23:42:47.573Z,12.37
2018-02-05T23:45:14.935Z,13.13
2018-02-05T23:47:42.334Z,12.80
2018-02-05T23:50:09.775Z,12.43
2018-02-05T23:52:37.202Z,11.23
2018-02-05T23:55:04.537Z,12.87
2018-02-05T23:57:32.031Z,12.70
2018-02-05T23:59:59.384Z,12.33
